sensor_id;sensor_type;location;lat;lon;timestamp;P1;durP1;ratioP1;P2;durP2;ratioP2
78131;SDS011;67381;47.672;9.380;2024-01-15T00:00:22;18.25;;;7.55;;
78131;SDS011;67381;47.672;9.380;2024-01-15T00:02:49;19.35;;;7.88;;
78131;SDS011;67381;47.672;9.380;2024-01-15T00:05:16;19.05;;;9.07;;
78131;SDS011;67381;47.672;9.380;2024-01-15T00:07:43;18.00;;;7.57;;
78131;SDS011;67381;47.672;9.380;2024-01-15T00:10:10;19.80;;;7.65;;
78131;SDS011;67381;47.672;9.380;2024-01-15T00:12:37;16.17;;;7.93;;
78131;SDS011;67381;47.672;9.380;2024-01-15T00:15:04;25.33;;;9.25;;
78131;SDS011;67381;47.672;9.380;2024-01-15T00:17:32;20.25;;;7.95;;
78131;SDS011;67381;47.672;9.380;2024-01-15T00:19:59;16.88;;;8.73;;
78131;SDS011;67381;47.672;9.380;2024-01-15T00:22:26;18.58;;;8.50;;
78131;SDS011;67381;47.672;9.380;2024-01-15T00:24:54;19.80;;;8.65;;
78131;SDS011;67381;47.672;9.380;2024-01-15T00:27:21;16.38;;;8.13;;
78131;SDS011;67381;47.672;9.380;2024-01-15T00:29:48;20.48;;;7.97;;
78131;SDS011;67381;47.672;9.380;2024-01-15T00:32:17;20.63;;;8.35;;
78131;SDS011;67381;47.672;9.380;2024-01-15T00:34:44;16.63;;;7.85;;
78131;SDS011;67381;47.672;9.380;2024-01-15T00:37:11;23.15;;;8.65;;
78131;SDS011;67381;47.672;9.380;2024-01-15T00:39:38;18.05;;;8.00;;
78131;SDS011;67381;47.672;9.380;2024-01-15T00:42:05;20.10;;;9.30;;
78131;SDS011;67381;47.672;9.380;2024-01-15T00:44:32;17.88;;;8.38;;
78131;SDS011;67381;47.672;9.380;2024-01-15T00:46:59;17.20;;;7.43;;
78131;SDS011;67381;47.672;9.380;2024-01-15T00:49:26;17.67;;;7.45;;
78131;SDS011;67381;47.672;9.380;2024-01-15T00:51:53;16.00;;;7.28;;
78131;SDS011;67381;47.672;9.380;2024-01-15T00:54:20;15.75;;;7.85;;
78131;SDS011;67381;47.672;9.380;2024-01-15T00:56:47;15.40;;;7.13;;
78131;SDS011;67381;47.672;9.380;2024-01-15T00:59:14;13.38;;;6.32;;
78131;SDS011;67381;47.672;9.380;2024-01-15T01:01:42;12.60;;;6.25;;
78131;SDS011;67381;47.672;9.380;2024-01-15T01:04:09;11.40;;;6.00;;
78131;SDS011;67381;47.672;9.380;2024-01-15T01:06:37;12.50;;;6.07;;
78131;SDS011;67381;47.672;9.380;2024-01-15T01:09:04;14.88;;;5.90;;
78131;SDS011;67381;47.672;9.380;2024-01-15T01:11:31;12.63;;;6.38;;
78131;SDS011;67381;47.672;9.380;2024-01-15T01:13:58;14.60;;;6.18;;
78131;SDS011;67381;47.672;9.380;2024-01-15T01:16:26;10.85;;;4.82;;
78131;SDS011;67381;47.672;9.380;2024-01-15T01:18:53;9.45;;;4.53;;
78131;SDS011;67381;47.672;9.380;2024-01-15T01:21:20;10.57;;;4.63;;
78131;SDS011;67381;47.672;9.380;2024-01-15T01:23:47;10.23;;;5.00;;
78131;SDS011;67381;47.672;9.380;2024-01-15T01:26:17;9.10;;;5.18;;
78131;SDS011;67381;47.672;9.380;2024-01-15T01:28:44;9.35;;;5.30;;
78131;SDS011;67381;47.672;9.380;2024-01-15T01:31:11;10.05;;;4.65;;
78131;SDS011;67381;47.672;9.380;2024-01-15T01:33:38;8.77;;;5.03;;
78131;SDS011;67381;47.672;9.380;2024-01-15T01:36:07;8.45;;;4.13;;
78131;SDS011;67381;47.672;9.380;2024-01-15T01:38:35;11.82;;;4.60;;
78131;SDS011;67381;47.672;9.380;2024-01-15T01:41:03;8.43;;;4.07;;
78131;SDS011;67381;47.672;9.380;2024-01-15T01:43:30;11.30;;;5.13;;
78131;SDS011;67381;47.672;9.380;2024-01-15T01:45:57;9.90;;;4.78;;
78131;SDS011;67381;47.672;9.380;2024-01-15T01:48:27;10.73;;;4.88;;
78131;SDS011;67381;47.672;9.380;2024-01-15T01:50:56;7.15;;;3.67;;
78131;SDS011;67381;47.672;9.380;2024-01-15T01:53:24;9.80;;;4.55;;
78131;SDS011;67381;47.672;9.380;2024-01-15T01:55:51;8.10;;;3.85;;
78131;SDS011;67381;47.672;9.380;2024-01-15T01:58:19;8.80;;;4.03;;
78131;SDS011;67381;47.672;9.380;2024-01-15T02:00:46;9.60;;;4.25;;
78131;SDS011;67381;47.672;9.380;2024-01-15T02:03:14;10.75;;;4.63;;
78131;SDS011;67381;47.672;9.380;2024-01-15T02:05:41;10.25;;;3.63;;
78131;SDS011;67381;47.672;9.380;2024-01-15T02:08:09;9.55;;;5.15;;
78131;SDS011;67381;47.672;9.380;2024-01-15T02:10:36;10.27;;;4.80;;
78131;SDS011;67381;47.672;9.380;2024-01-15T02:13:03;9.73;;;4.72;;
78131;SDS011;67381;47.672;9.380;2024-01-15T02:15:30;9.43;;;4.13;;
78131;SDS011;67381;47.672;9.380;2024-01-15T02:20:25;10.80;;;4.55;;
78131;SDS011;67381;47.672;9.380;2024-01-15T02:22:52;10.82;;;5.60;;
78131;SDS011;67381;47.672;9.380;2024-01-15T02:25:19;10.38;;;5.47;;
78131;SDS011;67381;47.672;9.380;2024-01-15T02:27:46;11.23;;;5.55;;
78131;SDS011;67381;47.672;9.380;2024-01-15T02:30:14;10.07;;;5.03;;
78131;SDS011;67381;47.672;9.380;2024-01-15T02:32:42;14.93;;;6.22;;
78131;SDS011;67381;47.672;9.380;2024-01-15T02:35:09;14.65;;;5.47;;
78131;SDS011;67381;47.672;9.380;2024-01-15T02:37:36;11.77;;;6.07;;
78131;SDS011;67381;47.672;9.380;2024-01-15T02:40:03;14.35;;;6.22;;
78131;SDS011;67381;47.672;9.380;2024-01-15T02:42:30;12.80;;;5.82;;
78131;SDS011;67381;47.672;9.380;2024-01-15T02:44:57;11.98;;;5.97;;
78131;SDS011;67381;47.672;9.380;2024-01-15T02:47:24;14.63;;;7.45;;
78131;SDS011;67381;47.672;9.380;2024-01-15T02:49:51;15.00;;;5.95;;
78131;SDS011;67381;47.672;9.380;2024-01-15T02:52:18;11.48;;;5.70;;
78131;SDS011;67381;47.672;9.380;2024-01-15T02:54:45;15.73;;;5.78;;
78131;SDS011;67381;47.672;9.380;2024-01-15T02:57:12;12.80;;;6.35;;
78131;SDS011;67381;47.672;9.380;2024-01-15T02:59:39;12.82;;;6.65;;
78131;SDS011;67381;47.672;9.380;2024-01-15T03:02:06;14.52;;;5.43;;
78131;SDS011;67381;47.672;9.380;2024-01-15T03:04:33;16.75;;;7.03;;
78131;SDS011;67381;47.672;9.380;2024-01-15T03:07:01;17.98;;;7.15;;
78131;SDS011;67381;47.672;9.380;2024-01-15T03:09:27;12.35;;;6.05;;
78131;SDS011;67381;47.672;9.380;2024-01-15T03:11:55;16.50;;;6.80;;
78131;SDS011;67381;47.672;9.380;2024-01-15T03:14:22;13.75;;;6.82;;
78131;SDS011;67381;47.672;9.380;2024-01-15T03:16:51;13.63;;;6.22;;
78131;SDS011;67381;47.672;9.380;2024-01-15T03:19:18;13.55;;;6.35;;
78131;SDS011;67381;47.672;9.380;2024-01-15T03:21:45;15.88;;;6.88;;
78131;SDS011;67381;47.672;9.380;2024-01-15T03:24:12;15.98;;;6.20;;
78131;SDS011;67381;47.672;9.380;2024-01-15T03:26:39;13.95;;;6.15;;
78131;SDS011;67381;47.672;9.380;2024-01-15T03:29:07;15.30;;;5.90;;
78131;SDS011;67381;47.672;9.380;2024-01-15T03:31:34;14.45;;;6.40;;
78131;SDS011;67381;47.672;9.380;2024-01-15T03:34:01;15.02;;;6.43;;
78131;SDS011;67381;47.672;9.380;2024-01-15T03:36:28;13.90;;;5.60;;
78131;SDS011;67381;47.672;9.380;2024-01-15T03:38:55;15.48;;;6.88;;
78131;SDS011;67381;47.672;9.380;2024-01-15T03:41:22;16.23;;;7.28;;
78131;SDS011;67381;47.672;9.380;2024-01-15T03:43:49;12.93;;;6.07;;
78131;SDS011;67381;47.672;9.380;2024-01-15T03:46:16;13.10;;;5.88;;
78131;SDS011;67381;47.672;9.380;2024-01-15T03:48:43;13.10;;;6.10;;
78131;SDS011;67381;47.672;9.380;2024-01-15T03:51:10;13.25;;;5.18;;
78131;SDS011;67381;47.672;9.380;2024-01-15T03:53:38;14.00;;;5.68;;
78131;SDS011;67381;47.672;9.380;2024-01-15T03:56:05;12.55;;;5.80;;
78131;SDS011;67381;47.672;9.380;2024-01-15T03:58:32;18.70;;;6.65;;
78131;SDS011;67381;47.672;9.380;2024-01-15T04:00:59;11.60;;;5.90;;
78131;SDS011;67381;47.672;9.380;2024-01-15T04:03:26;10.35;;;4.88;;
78131;SDS011;67381;47.672;9.380;2024-01-15T04:05:53;15.05;;;6.03;;
78131;SDS011;67381;47.672;9.380;2024-01-15T04:08:20;13.40;;;6.53;;
78131;SDS011;67381;47.672;9.380;2024-01-15T04:10:47;10.60;;;5.07;;
78131;SDS011;67381;47.672;9.380;2024-01-15T04:13:14;15.38;;;6.60;;
78131;SDS011;67381;47.672;9.380;2024-01-15T04:15:41;15.07;;;5.47;;
78131;SDS011;67381;47.672;9.380;2024-01-15T04:18:08;16.00;;;6.00;;
78131;SDS011;67381;47.672;9.380;2024-01-15T04:20:35;14.07;;;6.22;;
78131;SDS011;67381;47.672;9.380;2024-01-15T04:23:02;13.05;;;5.53;;
78131;SDS011;67381;47.672;9.380;2024-01-15T04:25:29;14.52;;;6.38;;
78131;SDS011;67381;47.672;9.380;2024-01-15T04:27:56;12.70;;;6.15;;
78131;SDS011;67381;47.672;9.380;2024-01-15T04:30:24;11.20;;;5.47;;
78131;SDS011;67381;47.672;9.380;2024-01-15T04:32:51;13.88;;;6.45;;
78131;SDS011;67381;47.672;9.380;2024-01-15T04:35:18;13.93;;;5.22;;
78131;SDS011;67381;47.672;9.380;2024-01-15T04:37:45;10.77;;;5.35;;
78131;SDS011;67381;47.672;9.380;2024-01-15T04:40:12;15.20;;;5.82;;
78131;SDS011;67381;47.672;9.380;2024-01-15T04:42:39;13.48;;;5.45;;
78131;SDS011;67381;47.672;9.380;2024-01-15T04:45:06;15.13;;;5.88;;
78131;SDS011;67381;47.672;9.380;2024-01-15T04:47:33;11.25;;;5.55;;
78131;SDS011;67381;47.672;9.380;2024-01-15T04:50:01;11.45;;;5.95;;
78131;SDS011;67381;47.672;9.380;2024-01-15T04:52:28;12.60;;;6.18;;
78131;SDS011;67381;47.672;9.380;2024-01-15T04:54:55;11.82;;;5.80;;
78131;SDS011;67381;47.672;9.380;2024-01-15T04:57:22;11.10;;;4.78;;
78131;SDS011;67381;47.672;9.380;2024-01-15T04:59:49;10.70;;;5.97;;
78131;SDS011;67381;47.672;9.380;2024-01-15T05:02:16;11.82;;;5.50;;
78131;SDS011;67381;47.672;9.380;2024-01-15T05:04:43;15.68;;;6.57;;
78131;SDS011;67381;47.672;9.380;2024-01-15T05:07:10;13.25;;;5.75;;
78131;SDS011;67381;47.672;9.380;2024-01-15T05:09:37;10.75;;;5.30;;
78131;SDS011;67381;47.672;9.380;2024-01-15T05:12:04;13.35;;;5.88;;
78131;SDS011;67381;47.672;9.380;2024-01-15T05:14:31;15.73;;;6.47;;
78131;SDS011;67381;47.672;9.380;2024-01-15T05:16:58;15.30;;;6.72;;
78131;SDS011;67381;47.672;9.380;2024-01-15T05:19:25;13.35;;;5.82;;
78131;SDS011;67381;47.672;9.380;2024-01-15T05:21:52;14.35;;;6.93;;
78131;SDS011;67381;47.672;9.380;2024-01-15T05:24:19;12.43;;;6.03;;
78131;SDS011;67381;47.672;9.380;2024-01-15T05:26:46;15.20;;;7.20;;
78131;SDS011;67381;47.672;9.380;2024-01-15T05:29:13;12.98;;;5.80;;
78131;SDS011;67381;47.672;9.380;2024-01-15T05:31:40;16.65;;;6.13;;
78131;SDS011;67381;47.672;9.380;2024-01-15T05:34:08;13.15;;;5.07;;
78131;SDS011;67381;47.672;9.380;2024-01-15T05:36:35;14.00;;;6.75;;
78131;SDS011;67381;47.672;9.380;2024-01-15T05:39:02;15.93;;;6.93;;
78131;SDS011;67381;47.672;9.380;2024-01-15T05:41:29;13.95;;;5.72;;
78131;SDS011;67381;47.672;9.380;2024-01-15T05:43:57;12.98;;;5.55;;
78131;SDS011;67381;47.672;9.380;2024-01-15T05:46:24;13.35;;;5.35;;
78131;SDS011;67381;47.672;9.380;2024-01-15T05:48:51;12.63;;;5.80;;
78131;SDS011;67381;47.672;9.380;2024-01-15T05:51:18;11.50;;;5.60;;
78131;SDS011;67381;47.672;9.380;2024-01-15T05:53:45;13.80;;;4.72;;
78131;SDS011;67381;47.672;9.380;2024-01-15T05:56:12;15.55;;;5.43;;
78131;SDS011;67381;47.672;9.380;2024-01-15T05:58:39;11.10;;;5.32;;
78131;SDS011;67381;47.672;9.380;2024-01-15T06:01:06;11.63;;;4.53;;
78131;SDS011;67381;47.672;9.380;2024-01-15T06:03:33;11.52;;;5.72;;
78131;SDS011;67381;47.672;9.380;2024-01-15T06:06:00;11.82;;;6.00;;
78131;SDS011;67381;47.672;9.380;2024-01-15T06:08:29;11.70;;;5.00;;
78131;SDS011;67381;47.672;9.380;2024-01-15T06:10:56;11.50;;;5.50;;
78131;SDS011;67381;47.672;9.380;2024-01-15T06:13:25;13.48;;;5.72;;
78131;SDS011;67381;47.672;9.380;2024-01-15T06:15:52;13.65;;;4.97;;
78131;SDS011;67381;47.672;9.380;2024-01-15T06:18:19;14.30;;;4.95;;
78131;SDS011;67381;47.672;9.380;2024-01-15T06:20:46;13.88;;;5.43;;
78131;SDS011;67381;47.672;9.380;2024-01-15T06:23:13;13.85;;;5.50;;
78131;SDS011;67381;47.672;9.380;2024-01-15T06:25:40;13.70;;;4.80;;
78131;SDS011;67381;47.672;9.380;2024-01-15T06:28:07;15.25;;;5.72;;
78131;SDS011;67381;47.672;9.380;2024-01-15T06:30:34;12.90;;;4.82;;
78131;SDS011;67381;47.672;9.380;2024-01-15T06:33:02;12.02;;;4.47;;
78131;SDS011;67381;47.672;9.380;2024-01-15T06:35:29;14.52;;;4.88;;
78131;SDS011;67381;47.672;9.380;2024-01-15T06:37:56;14.50;;;5.63;;
78131;SDS011;67381;47.672;9.380;2024-01-15T06:40:23;12.98;;;5.15;;
78131;SDS011;67381;47.672;9.380;2024-01-15T06:42:50;11.63;;;5.15;;
78131;SDS011;67381;47.672;9.380;2024-01-15T06:45:17;9.23;;;4.97;;
78131;SDS011;67381;47.672;9.380;2024-01-15T06:47:44;12.07;;;4.80;;
78131;SDS011;67381;47.672;9.380;2024-01-15T06:50:11;9.88;;;4.35;;
78131;SDS011;67381;47.672;9.380;2024-01-15T06:52:38;10.77;;;5.15;;
78131;SDS011;67381;47.672;9.380;2024-01-15T06:55:05;10.13;;;5.32;;
78131;SDS011;67381;47.672;9.380;2024-01-15T06:57:32;12.02;;;4.70;;
78131;SDS011;67381;47.672;9.380;2024-01-15T06:59:59;10.80;;;4.75;;
78131;SDS011;67381;47.672;9.380;2024-01-15T07:02:27;10.55;;;4.53;;
78131;SDS011;67381;47.672;9.380;2024-01-15T07:04:54;12.70;;;4.15;;
78131;SDS011;67381;47.672;9.380;2024-01-15T07:07:22;11.95;;;4.63;;
78131;SDS011;67381;47.672;9.380;2024-01-15T07:09:49;9.35;;;4.82;;
78131;SDS011;67381;47.672;9.380;2024-01-15T07:12:18;8.65;;;4.32;;
78131;SDS011;67381;47.672;9.380;2024-01-15T07:14:45;7.90;;;3.92;;
78131;SDS011;67381;47.672;9.380;2024-01-15T07:17:12;13.20;;;4.78;;
78131;SDS011;67381;47.672;9.380;2024-01-15T07:19:39;7.82;;;4.22;;
78131;SDS011;67381;47.672;9.380;2024-01-15T07:22:06;7.47;;;3.65;;
78131;SDS011;67381;47.672;9.380;2024-01-15T07:24:34;10.38;;;4.88;;
78131;SDS011;67381;47.672;9.380;2024-01-15T07:27:01;8.55;;;4.57;;
78131;SDS011;67381;47.672;9.380;2024-01-15T07:29:31;9.15;;;4.30;;
78131;SDS011;67381;47.672;9.380;2024-01-15T07:32:00;10.55;;;3.92;;
78131;SDS011;67381;47.672;9.380;2024-01-15T07:34:27;8.95;;;3.75;;
78131;SDS011;67381;47.672;9.380;2024-01-15T07:36:54;10.02;;;5.75;;
78131;SDS011;67381;47.672;9.380;2024-01-15T07:39:21;8.65;;;4.30;;
78131;SDS011;67381;47.672;9.380;2024-01-15T07:41:50;13.65;;;5.55;;
78131;SDS011;67381;47.672;9.380;2024-01-15T07:44:17;11.52;;;4.85;;
78131;SDS011;67381;47.672;9.380;2024-01-15T07:46:45;14.65;;;5.38;;
78131;SDS011;67381;47.672;9.380;2024-01-15T07:49:12;13.45;;;4.88;;
78131;SDS011;67381;47.672;9.380;2024-01-15T07:51:39;11.35;;;5.03;;
78131;SDS011;67381;47.672;9.380;2024-01-15T07:54:10;11.38;;;5.03;;
78131;SDS011;67381;47.672;9.380;2024-01-15T07:59:38;11.20;;;4.57;;
78131;SDS011;67381;47.672;9.380;2024-01-15T08:02:05;12.85;;;4.60;;
78131;SDS011;67381;47.672;9.380;2024-01-15T08:04:32;14.63;;;6.10;;
78131;SDS011;67381;47.672;9.380;2024-01-15T08:06:59;10.35;;;4.60;;
78131;SDS011;67381;47.672;9.380;2024-01-15T08:09:26;13.63;;;5.15;;
78131;SDS011;67381;47.672;9.380;2024-01-15T08:11:53;13.20;;;4.88;;
78131;SDS011;67381;47.672;9.380;2024-01-15T08:14:20;13.70;;;5.03;;
78131;SDS011;67381;47.672;9.380;2024-01-15T08:16:48;12.23;;;5.65;;
78131;SDS011;67381;47.672;9.380;2024-01-15T08:19:15;15.68;;;5.05;;
78131;SDS011;67381;47.672;9.380;2024-01-15T08:21:42;14.18;;;5.93;;
78131;SDS011;67381;47.672;9.380;2024-01-15T08:24:09;15.35;;;6.18;;
78131;SDS011;67381;47.672;9.380;2024-01-15T08:26:37;17.38;;;6.95;;
78131;SDS011;67381;47.672;9.380;2024-01-15T08:29:05;13.95;;;6.43;;
78131;SDS011;67381;47.672;9.380;2024-01-15T08:31:32;15.30;;;6.57;;
78131;SDS011;67381;47.672;9.380;2024-01-15T08:33:59;13.68;;;5.95;;
78131;SDS011;67381;47.672;9.380;2024-01-15T08:36:28;14.75;;;6.10;;
78131;SDS011;67381;47.672;9.380;2024-01-15T08:38:58;14.80;;;5.78;;
78131;SDS011;67381;47.672;9.380;2024-01-15T08:41:25;11.68;;;5.65;;
78131;SDS011;67381;47.672;9.380;2024-01-15T08:43:52;16.80;;;6.63;;
78131;SDS011;67381;47.672;9.380;2024-01-15T08:46:20;12.13;;;5.55;;
78131;SDS011;67381;47.672;9.380;2024-01-15T08:48:47;14.52;;;6.00;;
78131;SDS011;67381;47.672;9.380;2024-01-15T08:51:14;15.90;;;6.85;;
78131;SDS011;67381;47.672;9.380;2024-01-15T08:53:42;16.65;;;7.72;;
78131;SDS011;67381;47.672;9.380;2024-01-15T08:56:10;16.67;;;6.70;;
78131;SDS011;67381;47.672;9.380;2024-01-15T08:58:38;15.25;;;5.90;;
78131;SDS011;67381;47.672;9.380;2024-01-15T09:01:05;14.15;;;5.00;;
78131;SDS011;67381;47.672;9.380;2024-01-15T09:03:32;15.15;;;6.15;;
78131;SDS011;67381;47.672;9.380;2024-01-15T09:06:00;12.73;;;6.00;;
78131;SDS011;67381;47.672;9.380;2024-01-15T09:08:27;14.15;;;7.35;;
78131;SDS011;67381;47.672;9.380;2024-01-15T09:10:55;13.13;;;5.53;;
78131;SDS011;67381;47.672;9.380;2024-01-15T09:13:22;12.82;;;5.78;;
78131;SDS011;67381;47.672;9.380;2024-01-15T09:15:49;12.20;;;6.30;;
78131;SDS011;67381;47.672;9.380;2024-01-15T09:18:16;10.77;;;5.45;;
78131;SDS011;67381;47.672;9.380;2024-01-15T09:20:43;16.92;;;6.53;;
78131;SDS011;67381;47.672;9.380;2024-01-15T09:23:10;12.75;;;5.45;;
78131;SDS011;67381;47.672;9.380;2024-01-15T09:25:37;13.68;;;5.53;;
78131;SDS011;67381;47.672;9.380;2024-01-15T09:28:04;13.23;;;6.80;;
78131;SDS011;67381;47.672;9.380;2024-01-15T09:30:31;12.48;;;4.72;;
78131;SDS011;67381;47.672;9.380;2024-01-15T09:32:58;9.80;;;4.80;;
78131;SDS011;67381;47.672;9.380;2024-01-15T09:35:25;16.15;;;5.90;;
78131;SDS011;67381;47.672;9.380;2024-01-15T09:37:52;14.32;;;5.88;;
78131;SDS011;67381;47.672;9.380;2024-01-15T09:40:20;11.55;;;5.38;;
78131;SDS011;67381;47.672;9.380;2024-01-15T09:42:47;13.75;;;5.63;;
78131;SDS011;67381;47.672;9.380;2024-01-15T09:45:14;14.85;;;5.57;;
78131;SDS011;67381;47.672;9.380;2024-01-15T09:47:41;11.55;;;5.15;;
78131;SDS011;67381;47.672;9.380;2024-01-15T09:50:10;15.32;;;6.93;;
78131;SDS011;67381;47.672;9.380;2024-01-15T09:52:38;13.70;;;6.40;;
78131;SDS011;67381;47.672;9.380;2024-01-15T09:55:05;12.90;;;5.93;;
78131;SDS011;67381;47.672;9.380;2024-01-15T09:57:34;12.18;;;4.82;;
78131;SDS011;67381;47.672;9.380;2024-01-15T10:00:02;10.98;;;5.50;;
78131;SDS011;67381;47.672;9.380;2024-01-15T10:02:31;10.32;;;5.00;;
78131;SDS011;67381;47.672;9.380;2024-01-15T10:04:58;15.88;;;5.80;;
78131;SDS011;67381;47.672;9.380;2024-01-15T10:07:25;16.00;;;5.57;;
78131;SDS011;67381;47.672;9.380;2024-01-15T10:09:52;11.40;;;4.97;;
78131;SDS011;67381;47.672;9.380;2024-01-15T10:12:21;13.90;;;5.50;;
78131;SDS011;67381;47.672;9.380;2024-01-15T10:14:48;12.27;;;5.07;;
78131;SDS011;67381;47.672;9.380;2024-01-15T10:17:16;16.00;;;6.15;;
78131;SDS011;67381;47.672;9.380;2024-01-15T10:19:47;14.07;;;5.70;;
78131;SDS011;67381;47.672;9.380;2024-01-15T10:22:14;11.65;;;4.82;;
78131;SDS011;67381;47.672;9.380;2024-01-15T10:24:42;15.73;;;6.15;;
78131;SDS011;67381;47.672;9.380;2024-01-15T10:27:10;15.70;;;5.78;;
78131;SDS011;67381;47.672;9.380;2024-01-15T10:29:37;13.77;;;5.20;;
78131;SDS011;67381;47.672;9.380;2024-01-15T10:32:07;13.77;;;4.97;;
78131;SDS011;67381;47.672;9.380;2024-01-15T10:34:39;12.10;;;5.25;;
78131;SDS011;67381;47.672;9.380;2024-01-15T10:37:09;11.52;;;5.18;;
78131;SDS011;67381;47.672;9.380;2024-01-15T10:39:37;12.95;;;5.95;;
78131;SDS011;67381;47.672;9.380;2024-01-15T10:42:04;10.40;;;5.55;;
78131;SDS011;67381;47.672;9.380;2024-01-15T10:44:32;11.18;;;4.97;;
78131;SDS011;67381;47.672;9.380;2024-01-15T10:46:59;12.07;;;6.05;;
78131;SDS011;67381;47.672;9.380;2024-01-15T10:49:27;12.15;;;5.53;;
78131;SDS011;67381;47.672;9.380;2024-01-15T10:51:57;12.13;;;5.03;;
78131;SDS011;67381;47.672;9.380;2024-01-15T10:54:24;11.50;;;4.68;;
78131;SDS011;67381;47.672;9.380;2024-01-15T10:56:51;12.52;;;5.75;;
78131;SDS011;67381;47.672;9.380;2024-01-15T10:59:20;10.80;;;5.30;;
78131;SDS011;67381;47.672;9.380;2024-01-15T11:01:47;13.35;;;5.53;;
78131;SDS011;67381;47.672;9.380;2024-01-15T11:04:15;10.30;;;4.75;;
78131;SDS011;67381;47.672;9.380;2024-01-15T11:06:47;9.35;;;4.53;;
78131;SDS011;67381;47.672;9.380;2024-01-15T11:09:16;10.75;;;4.40;;
78131;SDS011;67381;47.672;9.380;2024-01-15T11:11:45;9.02;;;4.40;;
78131;SDS011;67381;47.672;9.380;2024-01-15T11:14:35;14.40;;;4.35;;
78131;SDS011;67381;47.672;9.380;2024-01-15T11:17:02;8.40;;;4.07;;
78131;SDS011;67381;47.672;9.380;2024-01-15T11:19:37;9.82;;;3.95;;
78131;SDS011;67381;47.672;9.380;2024-01-15T11:22:08;8.18;;;4.55;;
78131;SDS011;67381;47.672;9.380;2024-01-15T11:24:36;9.27;;;3.92;;
78131;SDS011;67381;47.672;9.380;2024-01-15T11:27:03;9.55;;;4.95;;
78131;SDS011;67381;47.672;9.380;2024-01-15T11:29:32;9.90;;;3.67;;
78131;SDS011;67381;47.672;9.380;2024-01-15T11:32:02;8.52;;;3.92;;
78131;SDS011;67381;47.672;9.380;2024-01-15T11:34:50;7.57;;;3.45;;
78131;SDS011;67381;47.672;9.380;2024-01-15T11:37:18;9.27;;;4.05;;
78131;SDS011;67381;47.672;9.380;2024-01-15T11:39:45;9.32;;;3.92;;
78131;SDS011;67381;47.672;9.380;2024-01-15T11:42:13;8.40;;;3.90;;
78131;SDS011;67381;47.672;9.380;2024-01-15T11:44:41;11.02;;;4.30;;
78131;SDS011;67381;47.672;9.380;2024-01-15T11:47:09;7.00;;;3.42;;
78131;SDS011;67381;47.672;9.380;2024-01-15T11:52:35;8.25;;;3.72;;
78131;SDS011;67381;47.672;9.380;2024-01-15T11:55:15;6.13;;;2.88;;
78131;SDS011;67381;47.672;9.380;2024-01-15T11:57:51;7.85;;;4.18;;
78131;SDS011;67381;47.672;9.380;2024-01-15T12:00:18;8.07;;;3.20;;
78131;SDS011;67381;47.672;9.380;2024-01-15T12:02:45;8.70;;;3.33;;
78131;SDS011;67381;47.672;9.380;2024-01-15T12:05:13;7.45;;;3.67;;
78131;SDS011;67381;47.672;9.380;2024-01-15T12:07:41;10.18;;;3.58;;
78131;SDS011;67381;47.672;9.380;2024-01-15T12:10:09;7.72;;;3.40;;
78131;SDS011;67381;47.672;9.380;2024-01-15T12:12:39;9.43;;;3.42;;
78131;SDS011;67381;47.672;9.380;2024-01-15T12:15:09;6.85;;;3.33;;
78131;SDS011;67381;47.672;9.380;2024-01-15T12:17:36;9.60;;;4.28;;
78131;SDS011;67381;47.672;9.380;2024-01-15T12:20:04;6.25;;;3.33;;
78131;SDS011;67381;47.672;9.380;2024-01-15T12:22:31;9.18;;;3.80;;
78131;SDS011;67381;47.672;9.380;2024-01-15T12:25:05;10.13;;;3.55;;
78131;SDS011;67381;47.672;9.380;2024-01-15T12:27:32;7.07;;;3.15;;
78131;SDS011;67381;47.672;9.380;2024-01-15T12:29:59;7.35;;;3.03;;
78131;SDS011;67381;47.672;9.380;2024-01-15T12:32:26;5.90;;;2.90;;
78131;SDS011;67381;47.672;9.380;2024-01-15T12:34:53;10.25;;;2.97;;
78131;SDS011;67381;47.672;9.380;2024-01-15T12:37:20;6.78;;;2.65;;
78131;SDS011;67381;47.672;9.380;2024-01-15T12:39:51;6.47;;;2.67;;
78131;SDS011;67381;47.672;9.380;2024-01-15T12:42:18;5.82;;;2.90;;
78131;SDS011;67381;47.672;9.380;2024-01-15T12:44:45;6.93;;;2.45;;
78131;SDS011;67381;47.672;9.380;2024-01-15T12:47:12;5.45;;;2.63;;
78131;SDS011;67381;47.672;9.380;2024-01-15T12:49:41;5.85;;;2.65;;
78131;SDS011;67381;47.672;9.380;2024-01-15T12:52:08;5.47;;;2.65;;
78131;SDS011;67381;47.672;9.380;2024-01-15T12:54:36;6.38;;;3.30;;
78131;SDS011;67381;47.672;9.380;2024-01-15T12:57:03;6.85;;;2.97;;
78131;SDS011;67381;47.672;9.380;2024-01-15T12:59:30;7.53;;;2.70;;
78131;SDS011;67381;47.672;9.380;2024-01-15T13:01:57;6.57;;;3.13;;
78131;SDS011;67381;47.672;9.380;2024-01-15T13:04:24;6.82;;;2.92;;
78131;SDS011;67381;47.672;9.380;2024-01-15T13:06:52;7.80;;;3.25;;
78131;SDS011;67381;47.672;9.380;2024-01-15T13:09:20;6.30;;;3.08;;
78131;SDS011;67381;47.672;9.380;2024-01-15T13:11:47;6.15;;;2.75;;
78131;SDS011;67381;47.672;9.380;2024-01-15T13:14:14;5.32;;;2.53;;
78131;SDS011;67381;47.672;9.380;2024-01-15T13:16:41;9.05;;;3.28;;
78131;SDS011;67381;47.672;9.380;2024-01-15T13:19:09;5.82;;;2.55;;
78131;SDS011;67381;47.672;9.380;2024-01-15T13:21:37;7.50;;;2.95;;
78131;SDS011;67381;47.672;9.380;2024-01-15T13:24:05;8.52;;;4.05;;
78131;SDS011;67381;47.672;9.380;2024-01-15T13:26:33;7.20;;;3.10;;
78131;SDS011;67381;47.672;9.380;2024-01-15T13:29:00;5.28;;;3.38;;
78131;SDS011;67381;47.672;9.380;2024-01-15T13:31:28;9.60;;;3.13;;
78131;SDS011;67381;47.672;9.380;2024-01-15T13:33:55;7.38;;;2.97;;
78131;SDS011;67381;47.672;9.380;2024-01-15T13:36:22;7.28;;;3.15;;
78131;SDS011;67381;47.672;9.380;2024-01-15T13:38:50;6.88;;;3.00;;
78131;SDS011;67381;47.672;9.380;2024-01-15T13:41:18;5.68;;;3.53;;
78131;SDS011;67381;47.672;9.380;2024-01-15T13:43:54;6.30;;;3.25;;
78131;SDS011;67381;47.672;9.380;2024-01-15T13:46:23;5.55;;;3.03;;
78131;SDS011;67381;47.672;9.380;2024-01-15T13:48:50;5.63;;;3.10;;
78131;SDS011;67381;47.672;9.380;2024-01-15T13:51:17;7.60;;;3.35;;
78131;SDS011;67381;47.672;9.380;2024-01-15T13:53:44;7.75;;;2.72;;
78131;SDS011;67381;47.672;9.380;2024-01-15T13:56:11;8.98;;;3.13;;
78131;SDS011;67381;47.672;9.380;2024-01-15T13:58:39;7.53;;;2.83;;
78131;SDS011;67381;47.672;9.380;2024-01-15T14:01:06;5.97;;;2.42;;
78131;SDS011;67381;47.672;9.380;2024-01-15T14:03:33;8.00;;;3.22;;
78131;SDS011;67381;47.672;9.380;2024-01-15T14:06:00;7.70;;;2.92;;
78131;SDS011;67381;47.672;9.380;2024-01-15T14:08:30;6.53;;;3.25;;
78131;SDS011;67381;47.672;9.380;2024-01-15T14:10:57;5.18;;;3.08;;
78131;SDS011;67381;47.672;9.380;2024-01-15T14:13:24;7.07;;;3.35;;
78131;SDS011;67381;47.672;9.380;2024-01-15T14:15:51;8.70;;;3.38;;
78131;SDS011;67381;47.672;9.380;2024-01-15T14:18:18;6.97;;;3.10;;
78131;SDS011;67381;47.672;9.380;2024-01-15T14:20:47;7.13;;;3.45;;
78131;SDS011;67381;47.672;9.380;2024-01-15T14:23:14;5.72;;;3.17;;
78131;SDS011;67381;47.672;9.380;2024-01-15T14:25:41;5.82;;;2.80;;
78131;SDS011;67381;47.672;9.380;2024-01-15T14:28:08;10.60;;;3.45;;
78131;SDS011;67381;47.672;9.380;2024-01-15T14:30:35;7.40;;;3.60;;
78131;SDS011;67381;47.672;9.380;2024-01-15T14:33:02;6.93;;;3.63;;
78131;SDS011;67381;47.672;9.380;2024-01-15T14:35:29;12.00;;;3.30;;
78131;SDS011;67381;47.672;9.380;2024-01-15T14:37:56;6.47;;;2.92;;
78131;SDS011;67381;47.672;9.380;2024-01-15T14:40:25;8.15;;;3.40;;
78131;SDS011;67381;47.672;9.380;2024-01-15T14:42:53;8.60;;;3.75;;
78131;SDS011;67381;47.672;9.380;2024-01-15T14:45:20;7.13;;;3.25;;
78131;SDS011;67381;47.672;9.380;2024-01-15T14:47:47;6.63;;;3.72;;